createdAt,value
2023-03-08T00:01:24.378Z,3.96
2023-03-08T00:03:55.519Z,3.84
2023-03-08T00:06:25.873Z,3.74
2023-03-08T00:08:59.611Z,3.71
2023-03-08T00:11:29.630Z,3.74
2023-03-08T00:13:58.530Z,3.81
2023-03-08T00:16:27.245Z,3.87
2023-03-08T00:18:55.919Z,3.94
2023-03-08T00:21:24.404Z,4.03
2023-03-08T00:23:54.619Z,4.11
2023-03-08T00:26:23.037Z,4.20
2023-03-08T00:28:51.733Z,4.29
2023-03-08T00:31:21.826Z,4.35
2023-03-08T00:33:55.004Z,4.40
2023-03-08T00:36:23.681Z,4.44
2023-03-08T00:38:52.827Z,4.45
2023-03-08T00:41:21.367Z,4.47
2023-03-08T00:43:50.198Z,4.47
2023-03-08T00:46:18.581Z,4.46
2023-03-08T00:48:46.798Z,4.46
2023-03-08T00:51:18.933Z,4.46
2023-03-08T00:53:49.343Z,4.48
2023-03-08T00:56:18.054Z,4.49
2023-03-08T00:58:46.996Z,4.49
2023-03-08T01:01:19.061Z,4.51
2023-03-08T01:03:50.052Z,4.55
2023-03-08T01:06:19.521Z,4.60
2023-03-08T01:08:48.133Z,4.58
2023-03-08T01:11:21.643Z,4.59
2023-03-08T01:13:51.586Z,4.63
2023-03-08T01:16:22.435Z,4.63
2023-03-08T01:18:52.516Z,4.66
2023-03-08T01:21:22.693Z,4.62
2023-03-08T01:23:52.599Z,4.62
2023-03-08T01:26:24.683Z,4.62
2023-03-08T01:28:57.696Z,4.60
2023-03-08T01:31:31.148Z,4.59
2023-03-08T01:34:01.604Z,4.59
2023-03-08T01:36:30.384Z,4.58
2023-03-08T01:39:01.834Z,4.57
2023-03-08T01:41:32.239Z,4.56
2023-03-08T01:44:00.954Z,4.55
2023-03-08T01:46:30.839Z,4.53
2023-03-08T01:49:20.651Z,4.53
2023-03-08T01:52:07.246Z,4.53
2023-03-08T01:55:00.700Z,4.57
2023-03-08T01:57:39.407Z,4.61
2023-03-08T02:00:14.935Z,4.65
2023-03-08T02:02:57.155Z,4.68
2023-03-08T02:05:26.675Z,4.73
2023-03-08T02:07:59.311Z,4.81
2023-03-08T02:10:31.041Z,4.88
2023-03-08T02:12:59.989Z,4.95
2023-03-08T02:15:28.437Z,5.01
2023-03-08T02:17:58.680Z,5.04
2023-03-08T02:20:31.168Z,5.03
2023-03-08T02:23:23.855Z,5.01
2023-03-08T02:26:04.210Z,5.00
2023-03-08T02:28:33.738Z,4.98
2023-03-08T02:31:02.537Z,4.97
2023-03-08T02:33:32.625Z,4.95
2023-03-08T02:36:05.582Z,4.94
2023-03-08T02:38:35.062Z,4.95
2023-03-08T02:41:03.653Z,4.96
2023-03-08T02:43:32.275Z,4.99
2023-03-08T02:46:01.152Z,5.03
2023-03-08T02:48:29.437Z,5.05
2023-03-08T02:50:57.699Z,5.07
2023-03-08T02:53:26.569Z,5.07
2023-03-08T02:55:55.003Z,5.10
2023-03-08T02:58:24.163Z,5.16
2023-03-08T03:00:52.557Z,5.21
2023-03-08T03:03:20.816Z,5.26
2023-03-08T03:05:52.613Z,5.28
2023-03-08T03:08:26.907Z,5.27
2023-03-08T03:10:56.274Z,5.23
2023-03-08T03:13:24.819Z,5.15
2023-03-08T03:15:53.514Z,5.07
2023-03-08T03:18:22.833Z,4.97
2023-03-08T03:20:51.409Z,4.85
2023-03-08T03:23:19.632Z,4.75
2023-03-08T03:25:52.931Z,4.64
2023-03-08T03:28:22.014Z,4.54
2023-03-08T03:30:51.349Z,4.48
2023-03-08T03:33:20.075Z,4.43
2023-03-08T03:35:48.590Z,4.36
2023-03-08T03:38:17.102Z,4.28
2023-03-08T03:40:46.405Z,4.24
2023-03-08T03:43:14.975Z,4.23
2023-03-08T03:45:43.183Z,4.24
2023-03-08T03:48:11.464Z,4.24
2023-03-08T03:50:40.016Z,4.22
2023-03-08T03:53:12.802Z,4.19
2023-03-08T03:55:41.804Z,4.16
2023-03-08T03:58:10.230Z,4.13
2023-03-08T04:00:39.171Z,4.09
2023-03-08T04:03:15.000Z,4.03
2023-03-08T04:05:44.186Z,3.99
2023-03-08T04:08:12.478Z,3.95
2023-03-08T04:10:42.076Z,3.91
2023-03-08T04:13:13.536Z,3.89
2023-03-08T04:15:42.207Z,3.88
2023-03-08T04:18:12.916Z,3.90
2023-03-08T04:20:45.893Z,3.94
2023-03-08T04:23:15.112Z,3.97
2023-03-08T04:25:47.734Z,3.97
2023-03-08T04:28:17.027Z,3.96
2023-03-08T04:30:46.570Z,3.93
2023-03-08T04:33:16.185Z,3.86
2023-03-08T04:35:48.061Z,3.78
2023-03-08T04:38:17.158Z,3.71
2023-03-08T04:41:12.328Z,3.68
2023-03-08T04:43:54.855Z,3.64
2023-03-08T04:46:28.090Z,3.64
2023-03-08T04:48:57.073Z,3.66
2023-03-08T04:51:27.809Z,3.70
2023-03-08T04:53:57.266Z,3.76
2023-03-08T04:56:27.131Z,3.83
2023-03-08T04:58:56.833Z,3.85
2023-03-08T05:01:25.632Z,3.86
2023-03-08T05:03:55.369Z,3.85
2023-03-08T05:06:36.033Z,3.84
2023-03-08T05:09:05.200Z,3.84
2023-03-08T05:11:35.657Z,3.87
2023-03-08T05:14:05.210Z,3.91
2023-03-08T05:16:35.325Z,3.96
2023-03-08T05:19:05.384Z,3.98
2023-03-08T05:21:37.495Z,4.00
2023-03-08T05:24:06.831Z,4.00
2023-03-08T05:26:37.650Z,4.01
2023-03-08T05:29:07.061Z,4.02
2023-03-08T05:31:38.019Z,4.03
2023-03-08T05:34:09.540Z,4.08
2023-03-08T05:36:38.648Z,4.16
2023-03-08T05:39:08.965Z,4.23
2023-03-08T05:41:53.232Z,4.29
2023-03-08T05:44:29.643Z,4.37
2023-03-08T05:46:58.740Z,4.43
2023-03-08T05:49:28.807Z,4.50
2023-03-08T05:51:58.378Z,4.58
2023-03-08T05:54:27.459Z,4.65
2023-03-08T05:56:58.743Z,4.74
2023-03-08T05:59:28.470Z,4.84
2023-03-08T06:02:01.131Z,4.87
2023-03-08T06:04:50.261Z,4.84
2023-03-08T06:07:21.718Z,4.80
2023-03-08T06:09:56.582Z,4.80
2023-03-08T06:12:25.590Z,4.86
2023-03-08T06:14:56.699Z,4.90
2023-03-08T06:17:27.474Z,4.95
2023-03-08T06:19:57.053Z,4.99
2023-03-08T06:22:26.264Z,5.01
2023-03-08T06:24:55.358Z,5.05
2023-03-08T06:27:29.672Z,5.11
2023-03-08T06:30:00.253Z,5.18
2023-03-08T06:32:28.795Z,5.25
2023-03-08T06:34:57.349Z,5.33
2023-03-08T06:37:25.864Z,5.42
2023-03-08T06:39:54.306Z,5.49
2023-03-08T06:42:39.814Z,5.56
2023-03-08T06:45:11.981Z,5.65
2023-03-08T06:47:42.437Z,5.72
2023-03-08T06:50:12.104Z,5.79
2023-03-08T06:52:45.458Z,5.85
2023-03-08T06:55:15.326Z,5.90
2023-03-08T06:57:44.230Z,5.94
2023-03-08T07:00:13.604Z,5.95
2023-03-08T07:02:42.305Z,5.97
2023-03-08T07:05:11.159Z,5.98
2023-03-08T07:07:40.654Z,6.00
2023-03-08T07:10:12.077Z,6.03
2023-03-08T07:12:44.032Z,6.10
2023-03-08T07:15:19.069Z,6.16
2023-03-08T07:17:49.166Z,6.22
2023-03-08T07:20:20.065Z,6.27
2023-03-08T07:22:48.492Z,6.37
2023-03-08T07:25:19.471Z,6.48
2023-03-08T07:27:47.966Z,6.54
2023-03-08T07:30:17.150Z,6.62
2023-03-08T07:32:45.714Z,6.69
2023-03-08T07:35:16.086Z,6.78
2023-03-08T07:37:46.249Z,6.85
2023-03-08T07:40:16.960Z,6.89
2023-03-08T07:42:47.317Z,7.02
2023-03-08T07:45:32.230Z,7.24
2023-03-08T07:48:00.759Z,7.42
2023-03-08T07:50:30.139Z,7.55
2023-03-08T07:53:00.458Z,7.67
2023-03-08T07:55:29.325Z,7.80
2023-03-08T07:57:57.913Z,7.95
2023-03-08T08:00:27.405Z,8.14
2023-03-08T08:02:55.952Z,8.35
2023-03-08T08:05:24.586Z,8.53
2023-03-08T08:07:54.197Z,8.51
2023-03-08T08:10:23.057Z,8.60
2023-03-08T08:12:51.892Z,8.73
2023-03-08T08:15:21.163Z,8.86
2023-03-08T08:17:50.216Z,9.07
2023-03-08T08:20:19.339Z,9.27
2023-03-08T08:22:48.016Z,9.34
2023-03-08T08:25:16.797Z,9.31
2023-03-08T08:27:46.094Z,9.38
2023-03-08T08:30:15.998Z,9.51
2023-03-08T08:32:45.826Z,9.70
2023-03-08T08:35:14.447Z,9.90
2023-03-08T08:37:43.431Z,10.04
2023-03-08T08:40:12.749Z,10.20
2023-03-08T08:42:41.714Z,10.27
2023-03-08T08:45:11.649Z,10.23
2023-03-08T08:47:42.105Z,10.25
2023-03-08T08:50:13.940Z,10.10
2023-03-08T08:52:42.983Z,10.08
2023-03-08T08:55:11.958Z,10.31
2023-03-08T08:57:40.667Z,10.41
2023-03-08T09:00:10.166Z,10.58
2023-03-08T09:02:39.527Z,10.73
2023-03-08T09:05:09.014Z,10.64
2023-03-08T09:07:38.969Z,10.53
2023-03-08T09:10:11.640Z,10.63
2023-03-08T09:12:42.774Z,10.68
2023-03-08T09:15:12.362Z,10.75
2023-03-08T09:17:41.520Z,10.84
2023-03-08T09:20:11.761Z,10.98
2023-03-08T09:22:43.394Z,11.16
2023-03-08T09:25:13.283Z,11.31
2023-03-08T09:27:43.205Z,11.40
2023-03-08T09:30:15.305Z,11.50
2023-03-08T09:32:44.669Z,11.40
2023-03-08T09:35:15.356Z,11.42
2023-03-08T09:37:44.177Z,11.47
2023-03-08T09:40:25.341Z,11.54
2023-03-08T09:43:02.194Z,11.59
2023-03-08T09:45:31.132Z,11.65
2023-03-08T09:48:13.475Z,11.67
2023-03-08T09:50:42.176Z,11.77
2023-03-08T09:53:25.719Z,11.79
2023-03-08T09:56:21.400Z,11.81
2023-03-08T09:58:58.783Z,11.88
2023-03-08T10:01:42.707Z,11.96
2023-03-08T10:04:15.306Z,11.97
2023-03-08T10:06:43.500Z,12.00
2023-03-08T10:09:42.435Z,12.08
2023-03-08T10:12:38.866Z,12.24
2023-03-08T10:15:22.328Z,12.25
2023-03-08T10:18:05.480Z,12.27
2023-03-08T10:20:40.942Z,12.33
2023-03-08T10:23:23.581Z,12.32
2023-03-08T10:25:52.389Z,12.23
2023-03-08T10:28:25.489Z,12.06
2023-03-08T10:31:00.721Z,11.92
2023-03-08T10:33:36.092Z,11.81
2023-03-08T10:36:06.464Z,11.84
2023-03-08T10:38:37.430Z,11.83
2023-03-08T10:41:15.221Z,11.85
2023-03-08T10:43:50.204Z,11.84
2023-03-08T10:46:27.126Z,11.83
2023-03-08T10:49:14.523Z,11.88
2023-03-08T10:51:59.825Z,11.89
2023-03-08T10:54:29.494Z,11.85
2023-03-08T10:57:02.143Z,11.66
2023-03-08T10:59:34.913Z,11.43
2023-03-08T11:02:22.807Z,11.38
2023-03-08T11:04:57.601Z,11.23
2023-03-08T11:07:30.149Z,11.15
2023-03-08T11:10:14.864Z,11.31
2023-03-08T11:12:44.398Z,11.38
2023-03-08T11:15:18.236Z,11.36
2023-03-08T11:17:58.892Z,11.35
2023-03-08T11:20:34.604Z,11.31
2023-03-08T11:23:05.873Z,11.29
2023-03-08T11:25:44.158Z,11.23
2023-03-08T11:28:33.967Z,11.13
2023-03-08T11:31:21.156Z,11.12
2023-03-08T11:34:22.681Z,11.18
2023-03-08T11:37:14.297Z,11.23
2023-03-08T11:39:46.388Z,11.40
2023-03-08T11:42:44.523Z,11.60
2023-03-08T11:45:26.455Z,11.81
2023-03-08T11:48:39.762Z,11.68
2023-03-08T11:51:37.332Z,11.78
2023-03-08T11:54:18.580Z,11.88
2023-03-08T11:56:48.119Z,11.93
2023-03-08T11:59:27.084Z,11.93
2023-03-08T12:02:03.299Z,11.91
2023-03-08T12:04:38.892Z,11.98
2023-03-08T12:07:16.340Z,11.77
2023-03-08T12:10:15.582Z,11.78
2023-03-08T12:12:51.802Z,11.95
2023-03-08T12:15:41.550Z,12.01
2023-03-08T12:18:28.308Z,12.12
2023-03-08T12:21:11.950Z,12.02
2023-03-08T12:23:43.213Z,12.01
2023-03-08T12:26:26.046Z,12.16
2023-03-08T12:29:02.374Z,12.36
2023-03-08T12:31:40.446Z,12.51
2023-03-08T12:34:28.135Z,12.56
2023-03-08T12:36:57.854Z,12.58
2023-03-08T12:39:33.768Z,12.55
2023-03-08T12:42:11.387Z,12.56
2023-03-08T12:44:40.831Z,12.67
2023-03-08T12:47:12.425Z,12.73
2023-03-08T12:49:47.626Z,12.81
2023-03-08T12:52:19.118Z,12.91
2023-03-08T12:55:21.118Z,12.99
2023-03-08T12:57:53.756Z,12.96
2023-03-08T13:00:26.242Z,12.95
2023-03-08T13:03:07.244Z,12.95
2023-03-08T13:05:38.670Z,12.97
2023-03-08T13:08:13.809Z,12.95
2023-03-08T13:10:54.621Z,12.93
2023-03-08T13:13:52.699Z,12.86
2023-03-08T13:16:31.621Z,12.76
2023-03-08T13:19:09.503Z,12.68
2023-03-08T13:21:51.162Z,12.62
2023-03-08T13:24:41.544Z,12.53
2023-03-08T13:27:28.315Z,12.48
2023-03-08T13:30:14.323Z,12.49
2023-03-08T13:32:43.057Z,12.52
2023-03-08T13:35:15.568Z,12.57
2023-03-08T13:37:53.325Z,12.42
2023-03-08T13:40:23.769Z,12.23
2023-03-08T13:43:02.536Z,12.21
2023-03-08T13:45:32.442Z,12.21
2023-03-08T13:48:07.446Z,12.22
2023-03-08T13:50:37.955Z,12.29
2023-03-08T13:53:18.722Z,12.33
2023-03-08T13:55:51.757Z,12.37
2023-03-08T13:58:26.883Z,12.32
2023-03-08T14:01:19.850Z,12.25
2023-03-08T14:03:49.394Z,12.19
2023-03-08T14:06:30.112Z,12.17
2023-03-08T14:09:00.793Z,12.20
2023-03-08T14:11:33.328Z,12.20
2023-03-08T14:14:04.827Z,12.19
2023-03-08T14:16:39.823Z,12.23
2023-03-08T14:19:30.182Z,12.21
2023-03-08T14:22:02.444Z,12.12
2023-03-08T14:24:34.220Z,11.99
2023-03-08T14:27:16.308Z,11.95
2023-03-08T14:29:46.063Z,11.96
2023-03-08T14:32:14.888Z,11.94
2023-03-08T14:34:46.725Z,11.93
2023-03-08T14:37:28.617Z,11.89
2023-03-08T14:40:21.172Z,11.77
2023-03-08T14:42:53.682Z,11.65
2023-03-08T14:45:38.120Z,11.61
2023-03-08T14:48:28.752Z,11.59
2023-03-08T14:51:26.054Z,11.51
2023-03-08T14:54:01.744Z,11.42
2023-03-08T14:56:31.623Z,11.43
2023-03-08T14:59:02.450Z,11.28
2023-03-08T15:01:35.143Z,11.26
2023-03-08T15:04:13.856Z,11.30
2023-03-08T15:06:44.683Z,11.29
2023-03-08T15:09:17.004Z,11.25
2023-03-08T15:11:48.016Z,11.21
2023-03-08T15:14:16.863Z,11.15
2023-03-08T15:16:45.518Z,11.07
2023-03-08T15:19:14.619Z,10.97
2023-03-08T15:21:43.504Z,10.92
2023-03-08T15:24:17.963Z,10.87
2023-03-08T15:26:46.871Z,10.83
2023-03-08T15:29:30.639Z,10.81
2023-03-08T15:32:00.107Z,10.76
2023-03-08T15:34:28.714Z,10.69
2023-03-08T15:36:57.371Z,10.66
2023-03-08T15:39:26.024Z,10.62
2023-03-08T15:41:54.811Z,10.58
2023-03-08T15:44:23.242Z,10.55
2023-03-08T15:46:52.974Z,10.53
2023-03-08T15:49:22.034Z,10.49
2023-03-08T15:51:50.442Z,10.43
2023-03-08T15:54:18.906Z,10.37
2023-03-08T15:56:47.032Z,10.26
2023-03-08T15:59:15.484Z,10.15
2023-03-08T16:01:43.672Z,10.02
2023-03-08T16:04:12.129Z,9.91
2023-03-08T16:06:44.088Z,9.79
2023-03-08T16:09:12.933Z,9.69
2023-03-08T16:11:41.239Z,9.59
2023-03-08T16:14:09.411Z,9.51
2023-03-08T16:16:45.284Z,9.46
2023-03-08T16:19:14.312Z,9.42
2023-03-08T16:21:42.533Z,9.40
2023-03-08T16:24:11.904Z,9.38
2023-03-08T16:26:39.977Z,9.38
2023-03-08T16:29:09.963Z,9.41
2023-03-08T16:31:38.419Z,9.44
2023-03-08T16:34:07.135Z,9.46
2023-03-08T16:36:35.219Z,9.47
2023-03-08T16:39:05.747Z,9.47
2023-03-08T16:41:36.339Z,9.48
2023-03-08T16:44:05.917Z,9.47
2023-03-08T16:46:34.384Z,9.44
2023-03-08T16:49:03.404Z,9.40
2023-03-08T16:51:31.746Z,9.34
2023-03-08T16:54:00.222Z,9.27
2023-03-08T16:56:30.006Z,9.20
2023-03-08T16:59:01.519Z,9.12
2023-03-08T17:01:31.785Z,9.03
2023-03-08T17:04:01.203Z,8.94
2023-03-08T17:06:31.283Z,8.86
2023-03-08T17:09:00.194Z,8.79
2023-03-08T17:11:31.400Z,8.69
2023-03-08T17:14:03.525Z,8.61
2023-03-08T17:16:33.146Z,8.57
2023-03-08T17:19:02.704Z,8.51
2023-03-08T17:21:32.056Z,8.42
2023-03-08T17:24:00.540Z,8.36
2023-03-08T17:26:29.119Z,8.30
2023-03-08T17:28:57.461Z,8.24
2023-03-08T17:31:26.411Z,8.19
2023-03-08T17:33:54.541Z,8.15
2023-03-08T17:36:23.001Z,8.14
2023-03-08T17:38:53.557Z,8.15
2023-03-08T17:41:23.002Z,8.15
2023-03-08T17:43:52.066Z,8.17
2023-03-08T17:46:25.859Z,8.20
2023-03-08T17:48:55.105Z,8.22
2023-03-08T17:51:30.299Z,8.25
2023-03-08T17:54:01.375Z,8.26
2023-03-08T17:56:32.304Z,8.27
2023-03-08T17:59:01.717Z,8.26
2023-03-08T18:01:31.507Z,8.27
2023-03-08T18:04:01.470Z,8.27
2023-03-08T18:06:37.973Z,8.26
2023-03-08T18:09:10.101Z,8.27
2023-03-08T18:11:38.867Z,8.29
2023-03-08T18:14:10.597Z,8.32
2023-03-08T18:16:40.085Z,8.34
2023-03-08T18:19:08.611Z,8.37
2023-03-08T18:21:38.854Z,8.38
2023-03-08T18:24:12.807Z,8.37
2023-03-08T18:26:40.903Z,8.33
2023-03-08T18:29:09.503Z,8.33
2023-03-08T18:31:38.629Z,8.32
2023-03-08T18:34:08.001Z,8.28
2023-03-08T18:36:37.998Z,8.25
2023-03-08T18:39:09.149Z,8.22
2023-03-08T18:41:38.500Z,8.21
2023-03-08T18:44:07.838Z,8.23
2023-03-08T18:46:36.282Z,8.23
2023-03-08T18:49:10.815Z,8.23
2023-03-08T18:51:41.289Z,8.24
2023-03-08T18:54:17.979Z,8.25
2023-03-08T18:56:50.068Z,8.27
2023-03-08T18:59:18.593Z,8.28
2023-03-08T19:01:46.727Z,8.30
2023-03-08T19:04:15.103Z,8.30
2023-03-08T19:06:43.526Z,8.30
2023-03-08T19:09:17.252Z,8.32
2023-03-08T19:11:48.295Z,8.33
2023-03-08T19:14:17.392Z,8.33
2023-03-08T19:16:46.011Z,8.35
2023-03-08T19:19:15.939Z,8.38
2023-03-08T19:21:46.916Z,8.42
2023-03-08T19:24:17.332Z,8.43
2023-03-08T19:26:51.459Z,8.37
2023-03-08T19:29:21.083Z,8.35
2023-03-08T19:31:50.947Z,8.35
2023-03-08T19:34:34.566Z,8.35
2023-03-08T19:37:04.868Z,8.36
2023-03-08T19:39:36.627Z,8.36
2023-03-08T19:42:08.827Z,8.37
2023-03-08T19:44:37.314Z,8.37
2023-03-08T19:47:05.589Z,8.37
2023-03-08T19:49:35.563Z,8.39
2023-03-08T19:52:06.022Z,8.43
2023-03-08T19:54:34.639Z,8.48
2023-03-08T19:57:03.337Z,8.47
2023-03-08T19:59:32.070Z,8.47
2023-03-08T20:02:00.371Z,8.47
2023-03-08T20:04:29.501Z,8.47
2023-03-08T20:07:01.721Z,8.47
2023-03-08T20:09:29.752Z,8.46
2023-03-08T20:11:59.143Z,8.45
2023-03-08T20:14:28.463Z,8.44
2023-03-08T20:16:59.370Z,8.41
2023-03-08T20:19:31.995Z,8.40
2023-03-08T20:22:00.831Z,8.39
2023-03-08T20:24:28.952Z,8.40
2023-03-08T20:26:57.363Z,8.39
2023-03-08T20:29:25.433Z,8.39
2023-03-08T20:31:56.064Z,8.39
2023-03-08T20:34:25.695Z,8.39
2023-03-08T20:36:53.891Z,8.39
2023-03-08T20:39:22.833Z,8.38
2023-03-08T20:41:51.377Z,8.36
2023-03-08T20:44:19.503Z,8.34
2023-03-08T20:46:48.893Z,8.32
2023-03-08T20:49:17.221Z,8.28
2023-03-08T20:51:45.096Z,8.24
2023-03-08T20:54:13.117Z,8.21
2023-03-08T20:56:41.138Z,8.19
2023-03-08T20:59:09.174Z,8.17
2023-03-08T21:01:37.602Z,8.15
2023-03-08T21:04:06.344Z,8.14
2023-03-08T21:06:34.616Z,8.14
2023-03-08T21:09:03.318Z,8.14
2023-03-08T21:11:31.248Z,8.14
2023-03-08T21:13:59.398Z,8.18
2023-03-08T21:16:28.925Z,8.21
2023-03-08T21:19:00.922Z,8.25
2023-03-08T21:21:35.681Z,8.31
2023-03-08T21:24:11.054Z,8.36
2023-03-08T21:26:39.356Z,8.41
2023-03-08T21:29:11.080Z,8.46
2023-03-08T21:31:51.022Z,8.51
2023-03-08T21:34:20.519Z,8.53
2023-03-08T21:36:49.150Z,8.54
2023-03-08T21:39:19.314Z,8.54
2023-03-08T21:41:48.759Z,8.53
2023-03-08T21:44:20.065Z,8.55
2023-03-08T21:46:51.700Z,8.59
2023-03-08T21:49:23.252Z,8.62
2023-03-08T21:51:53.181Z,8.64
2023-03-08T21:54:22.569Z,8.65
2023-03-08T21:56:50.732Z,8.64
2023-03-08T21:59:19.054Z,8.62
2023-03-08T22:01:49.121Z,8.59
2023-03-08T22:04:18.048Z,8.56
2023-03-08T22:06:46.647Z,8.53
2023-03-08T22:09:14.849Z,8.51
2023-03-08T22:11:42.935Z,8.48
2023-03-08T22:14:12.047Z,8.46
2023-03-08T22:16:40.102Z,8.44
2023-03-08T22:19:10.136Z,8.42
2023-03-08T22:21:38.293Z,8.39
2023-03-08T22:24:06.513Z,8.39
2023-03-08T22:26:34.561Z,8.37
2023-03-08T22:29:02.578Z,8.37
2023-03-08T22:31:31.200Z,8.36
2023-03-08T22:34:00.573Z,8.37
2023-03-08T22:36:28.982Z,8.40
2023-03-08T22:38:57.126Z,8.41
2023-03-08T22:41:27.204Z,8.41
2023-03-08T22:43:55.628Z,8.43
2023-03-08T22:46:27.057Z,8.44
2023-03-08T22:48:58.341Z,8.45
2023-03-08T22:51:28.451Z,8.44
2023-03-08T22:53:59.205Z,8.43
2023-03-08T22:56:30.404Z,8.41
2023-03-08T22:58:58.889Z,8.40
2023-03-08T23:01:28.770Z,8.38
2023-03-08T23:03:59.733Z,8.36
2023-03-08T23:06:29.810Z,8.34
2023-03-08T23:09:00.938Z,8.34
2023-03-08T23:11:29.488Z,8.32
2023-03-08T23:13:57.624Z,8.27
2023-03-08T23:16:26.063Z,8.17
2023-03-08T23:18:55.313Z,8.17
2023-03-08T23:21:27.026Z,8.18
2023-03-08T23:23:56.280Z,8.18
2023-03-08T23:26:27.478Z,8.19
2023-03-08T23:28:57.373Z,8.19
2023-03-08T23:31:27.973Z,8.18
2023-03-08T23:33:57.250Z,8.18
2023-03-08T23:36:26.489Z,8.18
2023-03-08T23:38:55.448Z,8.17
2023-03-08T23:41:24.436Z,8.17
2023-03-08T23:43:58.282Z,8.17
2023-03-08T23:46:27.259Z,8.15
2023-03-08T23:48:57.175Z,8.11
2023-03-08T23:51:27.800Z,8.10
2023-03-08T23:53:58.489Z,8.08
2023-03-08T23:56:31.048Z,8.05
2023-03-08T23:59:02.628Z,8.01
